createdAt,value
2018-03-20T00:01:46.940Z,29.27
2018-03-20T00:04:13.908Z,24.58
2018-03-20T00:06:40.116Z,26.27
2018-03-20T00:09:06.331Z,27.85
2018-03-20T00:11:32.570Z,26.23
2018-03-20T00:13:58.873Z,25.15
2018-03-20T00:16:25.040Z,27.05
2018-03-20T00:18:51.260Z,29.60
2018-03-20T00:21:17.503Z,26.10
2018-03-20T00:23:43.725Z,25.23
2018-03-20T00:26:09.969Z,24.98
2018-03-20T00:28:36.204Z,26.05
2018-03-20T00:31:02.435Z,26.42
2018-03-20T00:33:29.399Z,25.75
2018-03-20T00:35:56.633Z,25.73
2018-03-20T00:38:22.855Z,26.77
2018-03-20T00:40:49.091Z,26.73
2018-03-20T00:43:15.326Z,28.00
2018-03-20T00:45:41.549Z,26.90
2018-03-20T00:48:07.769Z,27.85
2018-03-20T00:50:33.995Z,27.80
2018-03-20T00:53:01.242Z,26.20
2018-03-20T00:55:27.554Z,28.30
2018-03-20T00:57:53.745Z,28.73
2018-03-20T01:00:20.727Z,27.95
2018-03-20T01:02:46.957Z,28.20
2018-03-20T01:05:13.199Z,27.58
2018-03-20T01:07:39.409Z,29.95
2018-03-20T01:10:06.385Z,26.83
2018-03-20T01:12:33.337Z,26.67
2018-03-20T01:15:00.315Z,28.67
2018-03-20T01:17:26.543Z,29.75
2018-03-20T01:19:52.777Z,29.02
2018-03-20T01:22:20.020Z,28.77
2018-03-20T01:24:46.219Z,28.38
2018-03-20T01:27:12.424Z,31.75
2018-03-20T01:29:39.386Z,31.17
2018-03-20T01:32:05.583Z,28.85
2018-03-20T01:34:31.804Z,29.30
2018-03-20T01:36:58.005Z,29.52
2018-03-20T01:39:24.223Z,29.55
2018-03-20T01:41:50.461Z,30.48
2018-03-20T01:44:16.928Z,30.50
2018-03-20T01:46:43.883Z,31.62
2018-03-20T01:49:10.091Z,29.75
2018-03-20T01:51:36.314Z,30.35
2018-03-20T01:54:02.555Z,29.75
2018-03-20T01:56:28.774Z,29.45
2018-03-20T01:58:54.988Z,30.10
2018-03-20T02:01:22.324Z,31.17
2018-03-20T02:03:48.532Z,29.70
2018-03-20T02:06:14.758Z,29.42
2018-03-20T02:08:41.000Z,30.40
2018-03-20T02:11:07.220Z,30.33
2018-03-20T02:13:33.458Z,30.73
2018-03-20T02:15:59.677Z,28.85
2018-03-20T02:18:25.906Z,28.70
2018-03-20T02:20:52.138Z,28.62
2018-03-20T02:23:20.417Z,30.60
2018-03-20T02:25:46.782Z,32.92
2018-03-20T02:28:12.990Z,30.23
2018-03-20T02:30:39.234Z,30.25
2018-03-20T02:33:05.456Z,28.55
2018-03-20T02:35:31.699Z,31.67
2018-03-20T02:37:57.913Z,27.73
2018-03-20T02:40:24.120Z,29.20
2018-03-20T02:42:50.340Z,32.33
2018-03-20T02:45:16.548Z,31.90
2018-03-20T02:47:42.775Z,32.63
2018-03-20T02:50:08.982Z,30.15
2018-03-20T02:52:35.524Z,33.95
2018-03-20T02:55:01.852Z,32.50
2018-03-20T02:57:28.065Z,31.77
2018-03-20T02:59:54.297Z,30.08
2018-03-20T03:02:20.516Z,31.10
2018-03-20T03:04:47.845Z,32.90
2018-03-20T03:07:14.051Z,31.67
2018-03-20T03:09:40.271Z,32.17
2018-03-20T03:12:06.763Z,29.63
2018-03-20T03:14:32.989Z,30.52
2018-03-20T03:16:59.201Z,33.47
2018-03-20T03:19:25.425Z,30.40
2018-03-20T03:21:52.380Z,33.20
2018-03-20T03:24:18.623Z,31.83
2018-03-20T03:26:45.593Z,30.55
2018-03-20T03:29:11.833Z,31.02
2018-03-20T03:31:38.058Z,31.87
2018-03-20T03:34:05.014Z,34.15
2018-03-20T03:36:31.991Z,33.60
2018-03-20T03:38:58.214Z,32.28
2018-03-20T03:41:25.191Z,29.12
2018-03-20T03:43:51.399Z,32.15
2018-03-20T03:46:17.898Z,32.00
2018-03-20T03:48:44.113Z,31.20
2018-03-20T03:51:10.347Z,29.40
2018-03-20T03:53:36.651Z,32.13
2018-03-20T03:56:02.869Z,32.42
2018-03-20T03:58:29.078Z,33.70
2018-03-20T04:00:55.289Z,33.85
2018-03-20T04:03:21.779Z,32.55
2018-03-20T04:05:47.983Z,33.85
2018-03-20T04:08:14.947Z,40.17
2018-03-20T04:10:41.909Z,38.58
2018-03-20T04:13:08.858Z,37.92
2018-03-20T04:15:35.856Z,34.30
2018-03-20T04:18:02.109Z,32.38
2018-03-20T04:20:28.350Z,33.55
2018-03-20T04:22:54.611Z,31.00
2018-03-20T04:25:21.090Z,32.13
2018-03-20T04:27:48.029Z,32.90
2018-03-20T04:30:14.998Z,30.73
2018-03-20T04:32:41.288Z,31.20
2018-03-20T04:35:07.508Z,31.55
2018-03-20T04:37:33.731Z,30.52
2018-03-20T04:39:59.962Z,32.13
2018-03-20T04:42:26.930Z,30.15
2018-03-20T04:44:53.860Z,31.85
2018-03-20T04:47:20.076Z,30.90
2018-03-20T04:49:46.264Z,32.50
2018-03-20T04:52:13.243Z,31.23
2018-03-20T04:54:39.480Z,30.35
2018-03-20T04:57:05.720Z,30.23
2018-03-20T04:59:31.947Z,31.85
2018-03-20T05:01:58.148Z,33.10
2018-03-20T05:04:24.398Z,32.25
2018-03-20T05:06:50.636Z,32.05
2018-03-20T05:09:16.851Z,31.05
2018-03-20T05:11:43.069Z,29.65
2018-03-20T05:14:09.304Z,31.15
2018-03-20T05:16:35.549Z,33.40
2018-03-20T05:19:03.761Z,31.70
2018-03-20T05:21:44.926Z,30.77
2018-03-20T05:24:11.162Z,28.77
2018-03-20T05:26:37.403Z,43.22
2018-03-20T05:29:03.721Z,43.50
2018-03-20T05:31:30.729Z,32.75
2018-03-20T05:33:56.977Z,28.75
2018-03-20T05:36:23.237Z,33.15
2018-03-20T05:38:49.767Z,30.08
2018-03-20T05:41:16.008Z,31.35
2018-03-20T05:43:42.255Z,30.20
2018-03-20T05:46:08.526Z,30.65
2018-03-20T05:48:51.173Z,28.65
2018-03-20T05:51:23.231Z,29.98
2018-03-20T05:53:50.661Z,32.45
2018-03-20T05:56:18.511Z,35.08
2018-03-20T05:58:44.733Z,48.80
2018-03-20T06:01:10.977Z,38.30
2018-03-20T06:03:37.209Z,33.33
2018-03-20T06:06:03.458Z,33.42
2018-03-20T06:08:29.691Z,32.45
2018-03-20T06:10:55.934Z,33.75
2018-03-20T06:13:22.192Z,33.03
2018-03-20T06:15:49.143Z,31.58
2018-03-20T06:18:15.358Z,33.75
2018-03-20T06:20:42.343Z,29.65
2018-03-20T06:23:08.569Z,32.60
2018-03-20T06:25:34.783Z,35.17
2018-03-20T06:28:01.008Z,32.72
2018-03-20T06:30:27.243Z,33.63
2018-03-20T06:32:53.502Z,34.40
2018-03-20T06:35:19.714Z,32.38
2018-03-20T06:37:45.954Z,33.13
2018-03-20T06:40:12.918Z,32.40
2018-03-20T06:42:39.159Z,33.22
2018-03-20T06:45:05.396Z,31.27
2018-03-20T06:47:31.602Z,32.30
2018-03-20T06:49:57.842Z,29.45
2018-03-20T06:52:24.058Z,34.30
2018-03-20T06:54:51.038Z,29.37
2018-03-20T06:57:17.258Z,31.90
2018-03-20T06:59:44.218Z,33.92
2018-03-20T07:02:11.214Z,33.78
2018-03-20T07:04:37.420Z,35.80
2018-03-20T07:07:04.383Z,33.25
2018-03-20T07:09:30.600Z,31.75
2018-03-20T07:11:57.593Z,30.10
2018-03-20T07:14:23.812Z,31.75
2018-03-20T07:16:50.782Z,29.70
2018-03-20T07:19:17.033Z,34.92
2018-03-20T07:21:43.252Z,30.40
2018-03-20T07:24:10.234Z,30.55
2018-03-20T07:26:36.434Z,30.27
2018-03-20T07:29:02.714Z,32.58
2018-03-20T07:31:28.929Z,30.77
2018-03-20T07:33:55.903Z,33.28
2018-03-20T07:36:22.114Z,34.63
2018-03-20T07:38:49.078Z,32.30
2018-03-20T07:41:16.050Z,33.70
2018-03-20T07:43:42.272Z,31.45
2018-03-20T07:46:09.222Z,30.15
2018-03-20T07:48:35.461Z,30.25
2018-03-20T07:51:01.675Z,27.40
2018-03-20T07:53:27.950Z,31.58
2018-03-20T07:55:54.168Z,29.08
2018-03-20T07:58:20.383Z,27.75
2018-03-20T08:00:46.596Z,26.83
2018-03-20T08:03:12.882Z,30.35
2018-03-20T08:05:39.102Z,29.10
2018-03-20T08:08:05.352Z,26.77
2018-03-20T08:10:31.600Z,30.25
2018-03-20T08:12:57.829Z,27.13
2018-03-20T08:15:24.056Z,29.37
2018-03-20T08:17:50.295Z,28.60
2018-03-20T08:20:16.532Z,29.52
2018-03-20T08:22:42.758Z,30.15
2018-03-20T08:25:09.281Z,28.87
2018-03-20T08:27:35.531Z,28.30
2018-03-20T08:30:02.581Z,28.05
2018-03-20T08:32:29.559Z,26.62
2018-03-20T08:34:55.779Z,26.40
2018-03-20T08:37:23.019Z,28.48
2018-03-20T08:39:49.263Z,27.60
2018-03-20T08:42:15.507Z,29.02
2018-03-20T08:44:41.738Z,28.75
2018-03-20T08:47:07.971Z,30.30
2018-03-20T08:49:34.193Z,30.37
2018-03-20T08:52:00.430Z,28.35
2018-03-20T08:54:26.697Z,29.87
2018-03-20T08:56:52.935Z,27.00
2018-03-20T08:59:19.157Z,28.52
2018-03-20T09:01:45.393Z,27.33
2018-03-20T09:04:11.638Z,28.23
2018-03-20T09:06:37.879Z,26.70
2018-03-20T09:09:04.133Z,28.30
2018-03-20T09:11:31.078Z,28.27
2018-03-20T09:13:57.323Z,24.65
2018-03-20T09:16:23.560Z,27.25
2018-03-20T09:18:49.804Z,27.10
2018-03-20T09:21:16.021Z,27.83
2018-03-20T09:23:42.268Z,28.08
2018-03-20T09:26:08.437Z,29.37
2018-03-20T09:28:34.681Z,28.98
2018-03-20T09:31:00.935Z,27.52
2018-03-20T09:33:27.186Z,27.02
2018-03-20T09:35:53.422Z,25.88
2018-03-20T09:38:19.638Z,25.48
2018-03-20T09:40:45.871Z,27.45
2018-03-20T09:43:12.089Z,26.95
2018-03-20T09:45:38.313Z,23.90
2018-03-20T09:48:04.562Z,27.75
2018-03-20T09:50:30.785Z,29.30
2018-03-20T09:52:57.044Z,28.30
2018-03-20T09:55:23.339Z,31.00
2018-03-20T09:57:49.570Z,27.23
2018-03-20T10:00:15.873Z,29.23
2018-03-20T10:02:42.796Z,28.52
2018-03-20T10:05:09.784Z,27.13
2018-03-20T10:07:36.016Z,22.33
2018-03-20T10:10:02.271Z,25.05
2018-03-20T10:12:28.516Z,25.37
2018-03-20T10:14:54.760Z,22.62
2018-03-20T10:17:21.007Z,18.85
2018-03-20T10:19:47.260Z,19.45
2018-03-20T10:22:13.497Z,21.37
2018-03-20T10:24:39.736Z,20.60
2018-03-20T10:27:05.971Z,20.95
2018-03-20T10:29:32.203Z,21.90
2018-03-20T10:31:58.413Z,20.85
2018-03-20T10:34:25.401Z,19.35
2018-03-20T10:36:51.621Z,19.45
2018-03-20T10:39:17.893Z,21.20
2018-03-20T10:41:44.121Z,19.92
2018-03-20T10:44:10.363Z,18.80
2018-03-20T10:46:36.584Z,18.45
2018-03-20T10:49:03.599Z,17.25
2018-03-20T10:51:29.830Z,19.48
2018-03-20T10:53:56.073Z,19.65
2018-03-20T10:56:22.299Z,20.85
2018-03-20T10:58:48.527Z,19.85
2018-03-20T11:01:20.751Z,21.50
2018-03-20T11:03:46.983Z,18.25
2018-03-20T11:06:13.201Z,19.65
2018-03-20T11:08:39.471Z,18.87
2018-03-20T11:11:05.707Z,18.73
2018-03-20T11:13:31.945Z,17.58
2018-03-20T11:15:58.153Z,18.20
2018-03-20T11:18:24.740Z,16.40
2018-03-20T11:20:50.973Z,19.50
2018-03-20T11:23:17.186Z,16.48
2018-03-20T11:25:43.433Z,17.40
2018-03-20T11:28:09.646Z,15.18
2018-03-20T11:30:35.913Z,15.48
2018-03-20T11:33:02.124Z,14.90
2018-03-20T11:35:28.625Z,16.02
2018-03-20T11:37:54.849Z,13.88
2018-03-20T11:40:21.053Z,13.93
2018-03-20T11:42:47.301Z,16.42
2018-03-20T11:45:13.554Z,12.50
2018-03-20T11:47:39.801Z,14.05
2018-03-20T11:50:06.059Z,14.40
2018-03-20T11:52:32.288Z,17.00
2018-03-20T11:54:58.553Z,14.00
2018-03-20T11:57:25.520Z,14.20
2018-03-20T11:59:52.520Z,10.55
2018-03-20T12:02:18.786Z,12.52
2018-03-20T12:04:45.514Z,12.85
2018-03-20T12:07:12.470Z,11.95
2018-03-20T12:09:47.630Z,48.00
2018-03-20T12:12:13.889Z,10.63
2018-03-20T12:14:40.144Z,22.85
2018-03-20T12:17:06.404Z,12.25
2018-03-20T12:19:33.378Z,11.38
2018-03-20T12:21:59.623Z,11.73
2018-03-20T12:24:25.854Z,12.10
2018-03-20T12:26:52.804Z,11.45
2018-03-20T12:29:19.801Z,11.00
2018-03-20T12:31:46.054Z,12.37
2018-03-20T12:34:12.622Z,10.65
2018-03-20T12:36:38.866Z,11.98
2018-03-20T12:39:05.939Z,11.20
2018-03-20T12:41:32.181Z,12.85
2018-03-20T12:43:58.429Z,11.43
2018-03-20T12:46:25.685Z,10.70
2018-03-20T12:48:51.893Z,10.45
2018-03-20T12:51:18.121Z,11.23
2018-03-20T12:53:44.363Z,11.18
2018-03-20T12:56:10.635Z,10.75
2018-03-20T12:58:36.872Z,12.25
2018-03-20T13:01:03.097Z,9.75
2018-03-20T13:03:29.379Z,11.55
2018-03-20T13:05:56.365Z,10.80
2018-03-20T13:08:22.589Z,10.23
2018-03-20T13:10:49.561Z,9.90
2018-03-20T13:13:15.796Z,10.00
2018-03-20T13:15:42.064Z,10.80
2018-03-20T13:18:08.271Z,10.65
2018-03-20T13:20:34.521Z,10.35
2018-03-20T13:23:00.767Z,10.63
2018-03-20T13:25:26.988Z,9.68
2018-03-20T13:27:53.957Z,9.68
2018-03-20T13:30:20.191Z,10.05
2018-03-20T13:32:46.415Z,10.07
2018-03-20T13:35:13.381Z,11.10
2018-03-20T13:37:40.339Z,9.25
2018-03-20T13:40:06.577Z,9.70
2018-03-20T13:42:33.564Z,10.75
2018-03-20T13:44:59.800Z,8.95
2018-03-20T13:47:26.014Z,9.48
2018-03-20T13:49:52.988Z,9.13
2018-03-20T13:52:19.212Z,11.40
2018-03-20T13:54:46.222Z,10.60
2018-03-20T13:57:12.805Z,9.20
2018-03-20T13:59:39.751Z,9.88
2018-03-20T14:02:05.952Z,11.12
2018-03-20T14:04:32.259Z,9.90
2018-03-20T14:06:58.477Z,10.48
2018-03-20T14:09:26.328Z,9.93
2018-03-20T14:11:52.528Z,9.32
2018-03-20T14:14:18.781Z,10.88
2018-03-20T14:16:45.081Z,10.95
2018-03-20T14:19:12.048Z,10.02
2018-03-20T14:21:39.104Z,9.35
2018-03-20T14:24:05.344Z,9.38
2018-03-20T14:26:32.350Z,9.25
2018-03-20T14:28:58.597Z,9.50
2018-03-20T14:31:25.088Z,9.30
2018-03-20T14:33:51.330Z,9.48
2018-03-20T14:36:17.568Z,9.18
2018-03-20T14:38:43.820Z,10.15
2018-03-20T14:41:10.801Z,8.85
2018-03-20T14:43:37.047Z,9.88
2018-03-20T14:46:03.297Z,9.57
2018-03-20T14:48:29.526Z,8.98
2018-03-20T14:50:55.817Z,9.52
2018-03-20T14:53:22.167Z,8.45
2018-03-20T14:55:55.376Z,8.65
2018-03-20T14:58:21.625Z,8.20
2018-03-20T15:00:48.599Z,8.57
2018-03-20T15:03:14.817Z,8.25
2018-03-20T15:05:41.799Z,8.35
2018-03-20T15:08:08.053Z,8.05
2018-03-20T15:10:34.320Z,8.55
2018-03-20T15:13:00.559Z,9.38
2018-03-20T15:15:26.769Z,9.40
2018-03-20T15:17:53.020Z,8.88
2018-03-20T15:20:19.281Z,9.20
2018-03-20T15:22:45.515Z,9.48
2018-03-20T15:25:11.755Z,8.50
2018-03-20T15:27:37.992Z,8.35
2018-03-20T15:30:04.247Z,8.40
2018-03-20T15:32:30.497Z,8.10
2018-03-20T15:34:56.747Z,8.10
2018-03-20T15:37:22.969Z,8.00
2018-03-20T15:39:49.195Z,8.85
2018-03-20T15:42:15.407Z,9.50
2018-03-20T15:44:41.659Z,8.82
2018-03-20T15:47:07.886Z,7.93
2018-03-20T15:49:34.129Z,9.05
2018-03-20T15:52:00.371Z,9.75
2018-03-20T15:54:26.675Z,9.35
2018-03-20T15:56:52.923Z,10.27
2018-03-20T15:59:19.150Z,9.45
2018-03-20T16:01:45.647Z,10.43
2018-03-20T16:04:11.863Z,10.68
2018-03-20T16:06:38.847Z,10.70
2018-03-20T16:09:05.105Z,11.73
2018-03-20T16:11:31.346Z,10.82
2018-03-20T16:13:57.618Z,11.07
2018-03-20T16:16:30.871Z,11.55
2018-03-20T16:18:57.150Z,13.07
2018-03-20T16:21:23.388Z,11.95
2018-03-20T16:23:49.605Z,14.32
2018-03-20T16:26:15.884Z,11.25
2018-03-20T16:28:42.167Z,10.07
2018-03-20T16:31:09.194Z,11.35
2018-03-20T16:33:35.438Z,12.13
2018-03-20T16:36:01.683Z,11.85
2018-03-20T16:38:27.974Z,10.73
2018-03-20T16:40:54.217Z,11.40
2018-03-20T16:43:20.508Z,10.10
2018-03-20T16:45:46.714Z,11.23
2018-03-20T16:48:12.956Z,11.12
2018-03-20T16:50:39.182Z,11.20
2018-03-20T16:53:05.961Z,11.40
2018-03-20T16:55:32.216Z,12.20
2018-03-20T16:57:58.499Z,10.35
2018-03-20T17:00:24.734Z,11.20
2018-03-20T17:02:50.964Z,11.90
2018-03-20T17:05:17.969Z,9.90
2018-03-20T17:07:44.225Z,10.05
2018-03-20T17:10:10.442Z,11.35
2018-03-20T17:12:36.705Z,11.48
2018-03-20T17:15:03.003Z,14.23
2018-03-20T17:17:29.337Z,12.98
2018-03-20T17:19:58.150Z,13.20
2018-03-20T17:22:24.410Z,11.70
2018-03-20T17:24:50.672Z,10.68
2018-03-20T17:27:16.942Z,11.35
2018-03-20T17:29:43.936Z,13.50
2018-03-20T17:32:10.213Z,19.35
2018-03-20T17:34:36.471Z,14.32
2018-03-20T17:37:03.468Z,12.70
2018-03-20T17:39:29.744Z,13.05
2018-03-20T17:41:55.974Z,14.13
2018-03-20T17:44:22.204Z,14.15
2018-03-20T17:46:48.457Z,13.40
2018-03-20T17:49:14.708Z,12.90
2018-03-20T17:51:40.965Z,11.02
2018-03-20T17:54:07.298Z,13.25
2018-03-20T17:56:33.544Z,18.33
2018-03-20T17:58:59.864Z,13.98
2018-03-20T18:01:26.145Z,13.25
2018-03-20T18:03:52.483Z,12.10
2018-03-20T18:06:18.757Z,13.05
2018-03-20T18:08:44.987Z,13.13
2018-03-20T18:11:12.097Z,14.35
2018-03-20T18:13:38.384Z,16.00
2018-03-20T18:16:05.405Z,16.10
2018-03-20T18:18:31.657Z,16.90
2018-03-20T18:20:57.945Z,17.73
2018-03-20T18:23:24.209Z,20.55
2018-03-20T18:25:50.526Z,15.90
2018-03-20T18:28:17.639Z,17.25
2018-03-20T18:30:43.929Z,20.15
2018-03-20T18:33:10.530Z,16.67
2018-03-20T18:35:36.858Z,17.60
2018-03-20T18:38:03.169Z,17.90
2018-03-20T18:40:29.506Z,17.95
2018-03-20T18:42:55.811Z,15.68
2018-03-20T18:45:22.101Z,17.45
2018-03-20T18:47:48.416Z,16.73
2018-03-20T18:50:15.506Z,16.80
2018-03-20T18:52:41.799Z,17.58
2018-03-20T18:55:08.837Z,16.50
2018-03-20T18:57:35.164Z,16.05
2018-03-20T19:00:01.499Z,17.02
2018-03-20T19:02:27.791Z,17.40
2018-03-20T19:04:54.079Z,17.70
2018-03-20T19:07:20.392Z,17.45
2018-03-20T19:09:46.773Z,18.15
2018-03-20T19:12:13.071Z,17.45
2018-03-20T19:14:40.117Z,20.00
2018-03-20T19:17:06.405Z,19.60
2018-03-20T19:19:32.675Z,19.73
2018-03-20T19:21:58.947Z,19.40
2018-03-20T19:24:25.255Z,18.42
2018-03-20T19:26:51.551Z,19.30
2018-03-20T19:29:18.888Z,21.58
2018-03-20T19:31:45.184Z,22.02
2018-03-20T19:34:11.567Z,20.00
2018-03-20T19:36:37.912Z,19.73
2018-03-20T19:39:05.200Z,19.58
2018-03-20T19:41:32.294Z,17.45
2018-03-20T19:43:58.747Z,16.23
2018-03-20T19:46:25.136Z,17.80
2018-03-20T19:48:51.721Z,18.17
2018-03-20T19:51:18.055Z,19.58
2018-03-20T19:53:44.401Z,19.12
2018-03-20T19:56:11.522Z,19.10
2018-03-20T19:58:37.948Z,18.15
2018-03-20T20:01:05.110Z,16.60
2018-03-20T20:03:31.394Z,17.17
2018-03-20T20:05:59.230Z,18.65
2018-03-20T20:08:25.518Z,16.65
2018-03-20T20:10:52.615Z,16.83
2018-03-20T20:13:18.917Z,17.55
2018-03-20T20:15:45.980Z,17.12
2018-03-20T20:18:13.046Z,16.60
2018-03-20T20:20:40.089Z,19.00
2018-03-20T20:23:07.133Z,17.12
2018-03-20T20:25:33.444Z,16.52
2018-03-20T20:27:59.835Z,18.60
2018-03-20T20:30:27.673Z,18.67
2018-03-20T20:32:54.905Z,17.62
2018-03-20T20:35:21.304Z,17.33
2018-03-20T20:37:47.667Z,16.45
2018-03-20T20:40:14.771Z,16.65
2018-03-20T20:42:41.050Z,17.92
2018-03-20T20:45:07.404Z,17.25
2018-03-20T20:47:34.447Z,14.80
2018-03-20T20:50:00.750Z,16.10
2018-03-20T20:52:27.109Z,17.17
2018-03-20T20:54:53.405Z,16.92
2018-03-20T20:57:20.480Z,16.27
2018-03-20T20:59:46.775Z,16.90
2018-03-20T21:02:13.819Z,17.60
2018-03-20T21:04:40.115Z,17.80
2018-03-20T21:07:06.405Z,16.77
2018-03-20T21:09:32.709Z,16.70
2018-03-20T21:11:58.989Z,16.45
2018-03-20T21:14:25.257Z,14.43
2018-03-20T21:16:52.313Z,15.55
2018-03-20T21:19:18.622Z,17.37
2018-03-20T21:21:44.905Z,14.82
2018-03-20T21:24:11.909Z,15.98
2018-03-20T21:26:38.196Z,14.45
2018-03-20T21:29:04.468Z,15.75
2018-03-20T21:31:30.733Z,14.82
2018-03-20T21:33:56.986Z,16.25
2018-03-20T21:36:23.300Z,17.12
2018-03-20T21:38:49.586Z,16.30
2018-03-20T21:41:15.855Z,16.73
2018-03-20T21:43:42.086Z,15.02
2018-03-20T21:46:08.334Z,16.83
2018-03-20T21:48:34.568Z,17.65
2018-03-20T21:51:00.808Z,15.27
2018-03-20T21:53:27.147Z,16.08
2018-03-20T21:55:53.392Z,16.50
2018-03-20T21:58:19.650Z,16.98
2018-03-20T22:00:46.618Z,15.77
2018-03-20T22:03:13.574Z,17.25
2018-03-20T22:05:40.538Z,15.25
2018-03-20T22:08:06.800Z,18.98
2018-03-20T22:10:33.036Z,16.70
2018-03-20T22:12:59.275Z,16.52
2018-03-20T22:15:25.514Z,15.88
2018-03-20T22:17:51.742Z,17.08
2018-03-20T22:20:17.997Z,17.02
2018-03-20T22:22:44.198Z,17.37
2018-03-20T22:25:11.174Z,15.50
2018-03-20T22:27:38.125Z,15.82
2018-03-20T22:30:05.134Z,16.62
2018-03-20T22:32:31.362Z,15.32
2018-03-20T22:34:58.034Z,16.52
2018-03-20T22:37:24.235Z,16.87
2018-03-20T22:39:50.451Z,17.92
2018-03-20T22:42:17.422Z,17.27
2018-03-20T22:44:43.662Z,17.75
2018-03-20T22:47:10.170Z,17.33
2018-03-20T22:49:36.395Z,17.90
2018-03-20T22:52:02.617Z,17.73
2018-03-20T22:54:28.841Z,15.82
2018-03-20T22:56:55.076Z,48.63
2018-03-20T22:59:21.296Z,35.60
2018-03-20T23:01:48.259Z,20.60
2018-03-20T23:04:14.523Z,18.00
2018-03-20T23:06:40.752Z,18.80
2018-03-20T23:09:06.985Z,14.95
2018-03-20T23:11:33.221Z,36.35
2018-03-20T23:14:00.179Z,30.60
2018-03-20T23:16:27.146Z,87.28
2018-03-20T23:18:53.393Z,37.30
2018-03-20T23:21:19.627Z,78.32
2018-03-20T23:23:45.836Z,45.30
2018-03-20T23:26:12.377Z,26.05
2018-03-20T23:28:38.590Z,24.17
2018-03-20T23:31:04.815Z,24.90
2018-03-20T23:33:31.042Z,133.95
2018-03-20T23:35:57.250Z,37.67
2018-03-20T23:38:24.215Z,23.42
2018-03-20T23:40:51.164Z,19.45
2018-03-20T23:43:18.422Z,18.25
2018-03-20T23:45:44.665Z,17.80
2018-03-20T23:48:10.865Z,21.52
2018-03-20T23:50:37.095Z,21.45
2018-03-20T23:53:03.306Z,22.77
2018-03-20T23:55:30.275Z,21.70
2018-03-20T23:57:56.501Z,21.30
